createdAt,value
2022-12-13T00:00:26.854Z,2.45
2022-12-13T00:06:37.957Z,2.35
2022-12-13T00:09:43.836Z,2.13
2022-12-13T00:12:49.100Z,2.30
2022-12-13T00:16:01.916Z,2.13
2022-12-13T00:19:07.467Z,2.15
2022-12-13T00:22:12.797Z,3.00
2022-12-13T00:25:20.337Z,2.20
2022-12-13T00:28:25.845Z,2.40
2022-12-13T00:34:59.878Z,2.40
2022-12-13T00:38:05.820Z,2.78
2022-12-13T00:41:14.922Z,2.70
2022-12-13T00:44:20.731Z,5.95
2022-12-13T00:47:28.536Z,2.95
2022-12-13T00:50:33.938Z,2.78
2022-12-13T00:53:39.325Z,2.97
2022-12-13T00:56:46.195Z,2.92
2022-12-13T00:59:51.585Z,2.63
2022-12-13T01:02:59.884Z,3.05
2022-12-13T01:06:14.766Z,3.00
2022-12-13T01:09:21.507Z,3.00
2022-12-13T01:12:27.022Z,2.63
2022-12-13T01:15:32.643Z,3.13
2022-12-13T01:18:41.352Z,3.33
2022-12-13T01:21:46.615Z,3.08
2022-12-13T01:24:51.987Z,3.20
2022-12-13T01:27:57.364Z,2.88
2022-12-13T01:31:04.168Z,3.00
2022-12-13T01:34:13.265Z,3.30
2022-12-13T01:37:20.904Z,3.05
2022-12-13T01:40:31.499Z,3.17
2022-12-13T01:43:56.089Z,3.47
2022-12-13T01:47:01.168Z,3.80
2022-12-13T01:50:11.259Z,3.33
2022-12-13T01:53:18.159Z,3.25
2022-12-13T01:56:26.566Z,3.60
2022-12-13T01:59:32.064Z,3.40
2022-12-13T02:02:37.490Z,3.45
2022-12-13T02:05:47.122Z,3.90
2022-12-13T02:08:53.065Z,3.53
2022-12-13T02:11:58.517Z,3.63
2022-12-13T02:15:05.571Z,4.00
2022-12-13T02:18:25.578Z,4.10
2022-12-13T02:21:36.715Z,3.90
2022-12-13T02:24:51.502Z,3.80
2022-12-13T02:28:30.814Z,4.13
2022-12-13T02:31:41.033Z,4.68
2022-12-13T02:34:49.324Z,4.15
2022-12-13T02:37:56.693Z,4.50
2022-12-13T02:41:07.520Z,4.22
2022-12-13T02:44:22.888Z,4.75
2022-12-13T02:47:32.534Z,4.25
2022-12-13T02:50:39.158Z,4.15
2022-12-13T02:53:44.565Z,3.95
2022-12-13T02:56:56.703Z,3.92
2022-12-13T03:00:03.325Z,6.03
2022-12-13T03:03:19.051Z,4.80
2022-12-13T03:06:34.380Z,4.30
2022-12-13T03:09:52.413Z,4.30
2022-12-13T03:13:12.518Z,4.28
2022-12-13T03:16:23.535Z,4.13
2022-12-13T03:19:32.373Z,4.30
2022-12-13T03:25:42.648Z,3.53
2022-12-13T03:28:47.832Z,4.00
2022-12-13T03:31:53.222Z,3.60
2022-12-13T03:35:01.148Z,4.47
2022-12-13T03:38:08.904Z,3.58
2022-12-13T03:41:15.102Z,4.30
2022-12-13T03:44:20.496Z,4.05
2022-12-13T03:47:26.168Z,4.13
2022-12-13T03:50:34.299Z,4.03
2022-12-13T03:53:39.636Z,4.40
2022-12-13T03:56:44.887Z,4.95
2022-12-13T03:59:50.292Z,4.10
2022-12-13T04:02:55.470Z,4.03
2022-12-13T04:06:03.683Z,4.10
2022-12-13T04:09:09.184Z,4.68
2022-12-13T04:12:27.008Z,4.32
2022-12-13T04:15:32.233Z,3.70
2022-12-13T04:18:37.676Z,4.28
2022-12-13T04:21:45.639Z,3.35
2022-12-13T04:24:50.858Z,3.40
2022-12-13T04:27:56.133Z,3.70
2022-12-13T04:31:02.523Z,3.58
2022-12-13T04:34:08.269Z,4.00
2022-12-13T04:37:16.134Z,3.75
2022-12-13T04:40:22.185Z,3.58
2022-12-13T04:43:27.594Z,4.32
2022-12-13T04:46:33.140Z,4.25
2022-12-13T04:49:38.435Z,4.03
2022-12-13T04:52:46.783Z,3.70
2022-12-13T04:55:52.963Z,4.70
2022-12-13T04:58:58.244Z,4.72
2022-12-13T05:02:03.732Z,4.20
2022-12-13T05:05:09.769Z,4.68
2022-12-13T05:08:18.090Z,4.72
2022-12-13T05:11:23.644Z,5.47
2022-12-13T05:14:28.860Z,4.70
2022-12-13T05:17:33.989Z,5.85
2022-12-13T05:20:39.456Z,5.65
2022-12-13T05:23:47.839Z,5.38
2022-12-13T05:26:53.093Z,4.82
2022-12-13T05:30:04.388Z,4.93
2022-12-13T05:33:10.850Z,5.22
2022-12-13T05:36:16.339Z,4.93
2022-12-13T05:39:27.834Z,5.30
2022-12-13T05:42:35.400Z,5.38
2022-12-13T05:45:41.101Z,4.63
2022-12-13T05:48:46.546Z,4.93
2022-12-13T05:51:51.613Z,4.82
2022-12-13T05:55:13.048Z,4.65
2022-12-13T05:58:23.213Z,5.38
2022-12-13T06:01:29.282Z,5.18
2022-12-13T06:04:34.918Z,4.20
2022-12-13T06:07:41.538Z,5.13
2022-12-13T06:11:11.397Z,4.47
2022-12-13T06:14:21.471Z,4.60
2022-12-13T06:17:28.661Z,4.47
2022-12-13T06:20:34.008Z,4.93
2022-12-13T06:23:39.444Z,4.30
2022-12-13T06:26:48.023Z,4.35
2022-12-13T06:29:53.339Z,4.50
2022-12-13T06:32:58.856Z,4.90
2022-12-13T06:36:05.145Z,5.10
2022-12-13T06:39:10.984Z,5.10
2022-12-13T06:42:21.588Z,5.00
2022-12-13T06:45:28.315Z,4.85
2022-12-13T06:48:33.490Z,4.68
2022-12-13T06:51:39.166Z,5.18
2022-12-13T06:54:44.443Z,5.03
2022-12-13T06:57:52.602Z,5.13
2022-12-13T07:01:04.553Z,5.60
2022-12-13T07:04:30.601Z,5.38
2022-12-13T07:07:35.748Z,4.78
2022-12-13T07:10:43.159Z,4.45
2022-12-13T07:13:52.461Z,5.07
2022-12-13T07:17:03.441Z,4.32
2022-12-13T07:20:10.803Z,4.28
2022-12-13T07:23:17.281Z,4.60
2022-12-13T07:26:29.714Z,5.28
2022-12-13T07:29:38.055Z,4.35
2022-12-13T07:32:43.332Z,4.57
2022-12-13T07:35:48.974Z,5.43
2022-12-13T07:39:01.006Z,4.63
2022-12-13T07:42:06.366Z,5.65
2022-12-13T07:45:14.470Z,5.00
2022-12-13T07:48:20.046Z,5.15
2022-12-13T07:51:27.397Z,5.80
2022-12-13T07:54:32.795Z,4.88
2022-12-13T07:57:38.365Z,4.97
2022-12-13T08:00:47.963Z,5.10
2022-12-13T08:03:53.842Z,4.60
2022-12-13T08:06:59.137Z,5.47
2022-12-13T08:10:04.641Z,4.82
2022-12-13T08:13:10.997Z,4.85
2022-12-13T08:16:27.240Z,4.50
2022-12-13T08:19:34.644Z,5.15
2022-12-13T08:22:39.963Z,5.05
2022-12-13T08:25:46.317Z,5.20
2022-12-13T08:28:51.766Z,4.22
2022-12-13T08:32:01.169Z,4.57
2022-12-13T08:35:07.455Z,5.30
2022-12-13T08:38:13.020Z,4.63
2022-12-13T08:41:28.877Z,4.80
2022-12-13T08:44:34.814Z,3.25
2022-12-13T08:47:43.578Z,4.25
2022-12-13T08:50:48.986Z,3.75
2022-12-13T08:53:54.244Z,3.55
2022-12-13T08:57:17.135Z,2.22
2022-12-13T09:00:23.711Z,2.33
2022-12-13T09:03:31.941Z,1.88
2022-12-13T09:06:37.446Z,1.85
2022-12-13T09:09:42.863Z,1.80
2022-12-13T09:12:48.263Z,2.17
2022-12-13T09:15:53.622Z,1.95
2022-12-13T09:19:26.225Z,1.67
2022-12-13T09:22:33.390Z,1.95
2022-12-13T09:25:40.223Z,3.25
2022-12-13T09:28:45.840Z,1.52
2022-12-13T09:31:53.459Z,1.70
2022-12-13T09:35:01.315Z,1.97
2022-12-13T09:38:09.167Z,4.13
2022-12-13T09:41:20.571Z,4.20
2022-12-13T09:44:43.655Z,4.15
2022-12-13T09:47:51.829Z,2.20
2022-12-13T09:51:17.089Z,2.78
2022-12-13T09:54:24.829Z,2.22
2022-12-13T09:57:33.827Z,2.72
2022-12-13T10:00:40.442Z,3.45
2022-12-13T10:03:48.858Z,3.90
2022-12-13T10:06:59.990Z,3.13
2022-12-13T10:10:05.516Z,3.28
2022-12-13T10:13:14.209Z,3.00
2022-12-13T10:16:23.595Z,3.33
2022-12-13T10:19:32.484Z,3.05
2022-12-13T10:25:55.034Z,3.42
2022-12-13T10:29:10.132Z,3.72
2022-12-13T10:32:16.370Z,3.42
2022-12-13T10:35:25.341Z,3.70
2022-12-13T10:38:32.630Z,4.40
2022-12-13T10:41:41.700Z,3.85
2022-12-13T10:44:47.213Z,3.75
2022-12-13T10:47:52.929Z,4.47
2022-12-13T10:51:00.475Z,3.95
2022-12-13T10:54:06.167Z,5.43
2022-12-13T10:57:16.736Z,5.32
2022-12-13T11:00:34.192Z,4.70
2022-12-13T11:03:39.829Z,5.70
2022-12-13T11:06:46.059Z,4.85
2022-12-13T11:09:52.607Z,4.40
2022-12-13T11:13:04.299Z,5.10
2022-12-13T11:16:22.938Z,4.85
2022-12-13T11:19:30.633Z,5.97
2022-12-13T11:22:38.139Z,4.80
2022-12-13T11:25:44.495Z,6.07
2022-12-13T11:29:00.918Z,5.03
2022-12-13T11:32:11.586Z,6.38
2022-12-13T11:35:19.531Z,6.30
2022-12-13T11:38:29.302Z,6.07
2022-12-13T11:41:37.365Z,5.03
2022-12-13T11:44:49.465Z,5.85
2022-12-13T11:47:59.543Z,5.15
2022-12-13T11:51:04.691Z,5.22
2022-12-13T11:54:14.216Z,6.03
2022-12-13T11:57:34.015Z,6.22
2022-12-13T12:00:43.842Z,6.15
2022-12-13T12:03:51.241Z,6.93
2022-12-13T12:07:12.337Z,7.32
2022-12-13T12:13:33.869Z,8.38
2022-12-13T12:17:01.468Z,10.05
2022-12-13T12:20:07.540Z,8.15
2022-12-13T12:23:17.860Z,6.93
2022-12-13T12:26:28.095Z,7.72
2022-12-13T12:29:49.348Z,8.80
2022-12-13T12:33:01.230Z,7.03
2022-12-13T12:36:16.248Z,7.00
2022-12-13T12:39:27.206Z,6.30
2022-12-13T12:43:14.187Z,6.95
2022-12-13T12:46:20.379Z,5.38
2022-12-13T12:49:47.117Z,5.25
2022-12-13T12:52:58.851Z,5.68
2022-12-13T12:56:08.464Z,5.70
2022-12-13T12:59:17.418Z,5.63
2022-12-13T13:02:26.485Z,5.53
2022-12-13T13:05:33.938Z,6.18
2022-12-13T13:08:44.205Z,4.70
2022-12-13T13:11:51.034Z,5.13
2022-12-13T13:15:02.621Z,4.47
2022-12-13T13:18:29.360Z,4.50
2022-12-13T13:22:01.423Z,5.13
2022-12-13T13:25:22.153Z,5.00
2022-12-13T13:28:30.401Z,5.40
2022-12-13T13:32:01.467Z,6.20
2022-12-13T13:35:24.364Z,5.82
2022-12-13T13:38:47.431Z,6.47
2022-12-13T13:42:10.142Z,6.85
2022-12-13T13:45:27.630Z,7.15
2022-12-13T13:48:40.629Z,6.93
2022-12-13T13:52:26.406Z,7.28
2022-12-13T13:55:37.923Z,6.75
2022-12-13T13:58:58.219Z,6.68
2022-12-13T14:02:30.017Z,6.45
2022-12-13T14:05:56.606Z,7.25
2022-12-13T14:09:17.190Z,7.93
2022-12-13T14:12:49.475Z,8.63
2022-12-13T14:16:20.455Z,7.60
2022-12-13T14:19:40.964Z,7.10
2022-12-13T14:22:51.994Z,8.38
2022-12-13T14:26:17.948Z,8.43
2022-12-13T14:29:26.644Z,8.68
2022-12-13T14:32:35.766Z,8.70
2022-12-13T14:35:40.971Z,9.20
2022-12-13T14:38:49.220Z,9.18
2022-12-13T14:41:56.388Z,9.63
2022-12-13T14:45:17.721Z,7.88
2022-12-13T14:48:28.384Z,9.13
2022-12-13T14:51:36.065Z,8.60
2022-12-13T14:54:48.796Z,9.18
2022-12-13T14:57:55.478Z,8.65
2022-12-13T15:01:00.986Z,10.32
2022-12-13T15:04:21.468Z,9.55
2022-12-13T15:07:29.818Z,8.77
2022-12-13T15:10:41.563Z,8.90
2022-12-13T15:13:54.461Z,9.68
2022-12-13T15:17:00.391Z,9.63
2022-12-13T15:20:23.831Z,10.98
2022-12-13T15:23:31.270Z,10.27
2022-12-13T15:26:54.651Z,8.95
2022-12-13T15:30:00.087Z,10.87
2022-12-13T15:33:05.708Z,8.50
2022-12-13T15:36:13.460Z,8.38
2022-12-13T15:39:18.967Z,9.02
2022-12-13T15:42:32.312Z,10.68
2022-12-13T15:45:37.817Z,9.48
2022-12-13T15:48:48.622Z,9.98
2022-12-13T15:51:57.850Z,10.82
2022-12-13T15:55:04.922Z,10.18
2022-12-13T15:58:26.317Z,9.88
2022-12-13T16:01:32.043Z,11.13
2022-12-13T16:04:37.818Z,11.10
2022-12-13T16:07:43.312Z,11.23
2022-12-13T16:10:49.988Z,10.90
2022-12-13T16:13:58.476Z,10.63
2022-12-13T16:17:08.570Z,11.00
2022-12-13T16:20:16.191Z,11.50
2022-12-13T16:23:27.654Z,11.90
2022-12-13T16:26:33.447Z,11.88
2022-12-13T16:29:41.299Z,11.05
2022-12-13T16:36:12.473Z,12.50
2022-12-13T16:39:18.088Z,11.68
2022-12-13T16:42:25.887Z,11.57
2022-12-13T16:45:42.069Z,13.95
2022-12-13T16:48:47.632Z,12.38
2022-12-13T16:51:53.046Z,12.35
2022-12-13T16:55:00.781Z,12.55
2022-12-13T16:58:09.456Z,11.63
2022-12-13T17:01:18.083Z,11.80
2022-12-13T17:04:24.891Z,13.38
2022-12-13T17:07:30.719Z,12.60
2022-12-13T17:10:35.934Z,13.13
2022-12-13T17:13:41.520Z,13.20
2022-12-13T17:16:49.485Z,13.32
2022-12-13T17:19:54.976Z,14.45
2022-12-13T17:23:01.880Z,13.10
2022-12-13T17:26:08.470Z,13.75
2022-12-13T17:29:17.697Z,13.43
2022-12-13T17:32:25.978Z,13.63
2022-12-13T17:35:32.036Z,13.73
2022-12-13T17:38:37.857Z,13.73
2022-12-13T17:41:43.230Z,13.57
2022-12-13T17:45:00.172Z,14.30
2022-12-13T17:48:08.670Z,15.45
2022-12-13T17:54:19.181Z,12.65
2022-12-13T17:57:24.264Z,14.68
2022-12-13T18:00:29.721Z,13.40
2022-12-13T18:03:38.536Z,14.10
2022-12-13T18:06:45.217Z,12.75
2022-12-13T18:09:50.572Z,12.10
2022-12-13T18:12:56.310Z,13.18
2022-12-13T18:16:01.697Z,13.68
2022-12-13T18:19:10.808Z,13.35
2022-12-13T18:22:16.181Z,13.02
2022-12-13T18:25:21.756Z,13.50
2022-12-13T18:28:27.360Z,13.05
2022-12-13T18:31:33.092Z,13.15
2022-12-13T18:34:41.317Z,13.55
2022-12-13T18:37:46.841Z,14.02
2022-12-13T18:40:52.793Z,15.00
2022-12-13T18:43:59.876Z,14.63
2022-12-13T18:47:05.526Z,14.70
2022-12-13T18:50:13.647Z,13.95
2022-12-13T18:53:19.097Z,14.18
2022-12-13T18:56:24.605Z,14.52
2022-12-13T18:59:31.382Z,14.70
2022-12-13T19:02:37.025Z,15.02
2022-12-13T19:05:45.177Z,14.88
2022-12-13T19:08:51.745Z,15.13
2022-12-13T19:11:58.686Z,14.82
2022-12-13T19:15:04.358Z,15.10
2022-12-13T19:18:10.945Z,15.48
2022-12-13T19:21:20.185Z,16.00
2022-12-13T19:24:26.058Z,15.77
2022-12-13T19:27:31.725Z,14.75
2022-12-13T19:30:37.005Z,15.27
2022-12-13T19:33:42.446Z,14.35
2022-12-13T19:36:50.356Z,15.00
2022-12-13T19:39:55.942Z,14.50
2022-12-13T19:43:01.318Z,14.18
2022-12-13T19:46:07.360Z,17.52
2022-12-13T19:49:13.572Z,13.90
2022-12-13T19:52:21.587Z,15.48
2022-12-13T19:55:26.928Z,14.85
2022-12-13T19:58:32.637Z,14.27
2022-12-13T20:01:37.849Z,15.38
2022-12-13T20:04:44.990Z,16.77
2022-12-13T20:07:58.108Z,9.57
2022-12-13T20:11:04.966Z,6.32
2022-12-13T20:14:12.327Z,4.72
2022-12-13T20:17:17.504Z,5.47
2022-12-13T20:20:25.727Z,4.60
2022-12-13T20:23:39.945Z,4.97
2022-12-13T20:26:45.388Z,4.72
2022-12-13T20:29:54.234Z,4.85
2022-12-13T20:32:59.899Z,6.05
2022-12-13T20:39:33.715Z,4.38
2022-12-13T20:42:39.380Z,4.63
2022-12-13T20:45:44.603Z,4.35
2022-12-13T20:48:50.833Z,4.43
2022-12-13T20:51:56.395Z,4.80
2022-12-13T20:55:04.756Z,5.30
2022-12-13T20:58:10.658Z,11.65
2022-12-13T21:01:17.502Z,5.40
2022-12-13T21:04:22.904Z,5.05
2022-12-13T21:07:41.827Z,5.68
2022-12-13T21:10:49.944Z,6.22
2022-12-13T21:13:56.633Z,6.38
2022-12-13T21:17:04.888Z,6.07
2022-12-13T21:20:12.352Z,6.45
2022-12-13T21:23:17.909Z,7.13
2022-12-13T21:26:31.528Z,6.25
2022-12-13T21:29:40.050Z,7.22
2022-12-13T21:32:49.872Z,6.97
2022-12-13T21:35:58.083Z,6.85
2022-12-13T21:39:04.357Z,7.00
2022-12-13T21:42:14.080Z,6.30
2022-12-13T21:45:19.597Z,6.70
2022-12-13T21:48:24.770Z,7.43
2022-12-13T21:51:31.097Z,6.85
2022-12-13T21:54:36.467Z,6.55
2022-12-13T21:57:56.632Z,6.43
2022-12-13T22:01:01.768Z,6.07
2022-12-13T22:04:07.573Z,6.50
2022-12-13T22:07:13.501Z,6.85
2022-12-13T22:10:19.341Z,6.00
2022-12-13T22:13:28.038Z,7.22
2022-12-13T22:16:34.192Z,6.10
2022-12-13T22:19:39.839Z,6.68
2022-12-13T22:22:48.687Z,5.50
2022-12-13T22:25:54.476Z,6.18
2022-12-13T22:29:03.105Z,6.53
2022-12-13T22:32:08.736Z,6.28
2022-12-13T22:35:15.088Z,13.43
2022-12-13T22:38:20.581Z,6.68
2022-12-13T22:41:26.191Z,6.53
2022-12-13T22:44:34.234Z,7.30
2022-12-13T22:47:39.655Z,6.97
2022-12-13T22:50:45.634Z,6.25
2022-12-13T22:53:51.984Z,6.53
2022-12-13T22:56:56.971Z,5.78
2022-12-13T23:00:10.656Z,5.45
2022-12-13T23:03:16.090Z,5.65
2022-12-13T23:06:23.675Z,5.68
2022-12-13T23:09:28.993Z,5.60
2022-12-13T23:12:46.579Z,5.90
2022-12-13T23:15:54.423Z,5.10
2022-12-13T23:19:31.869Z,5.85
2022-12-13T23:22:26.952Z,6.53
2022-12-13T23:25:32.450Z,5.32
2022-12-13T23:28:37.791Z,6.18
2022-12-13T23:31:48.423Z,6.05
2022-12-13T23:34:54.512Z,6.03
2022-12-13T23:37:59.896Z,5.10
2022-12-13T23:41:09.053Z,5.50
2022-12-13T23:44:14.605Z,5.47
2022-12-13T23:47:22.361Z,5.35
2022-12-13T23:50:27.728Z,4.47
2022-12-13T23:53:33.259Z,5.18
2022-12-13T23:56:38.613Z,4.82
2022-12-13T23:59:43.873Z,4.93
